Lionhead Wind

Located on Lionhead Ridge near West Yellowstone. Use the nearest SNOTEL station for snow depth data: Madison Plateau. The data on this page is also available to view at dataGarrison.com.

Elevation
8775ft
Jump to table bottom
Date Time Temperature
deg F
RH, % Wind Speed Wind Gust Wind Direction
01/24/22 06:08 17.4 52 9 24 W - 284
01/24/22 05:08 18.4 53 6 24 W - 285
01/24/22 04:08 18.0 53 6 26 NW - 299
01/24/22 03:08 18.7 50 4 16 SW - 247
01/24/22 02:08 18.8 51 6 20 W - 285
01/24/22 01:08 18.3 51 4 21 N - 3
01/24/22 00:08 18.2 53 6 28 N - 14
01/23/22 23:08 21.0 47 7 27 NW - 321
01/23/22 22:08 21.4 44 9 41 NW - 298
01/23/22 21:08 23.2 45 8 33 NW - 319
01/23/22 20:08 23.1 46 7 33 N - 7
01/23/22 19:08 23.9 50 8 37 N - 344
01/23/22 18:08 23.1 56 7 37 NW - 329
01/23/22 17:08 23.6 56 4 23 N - 6
01/23/22 16:08 23.1 57 5 25 N - 341
01/23/22 15:08 25.3 68 10 27 W - 292
01/23/22 14:08 20.8 56 8 24 SW - 226
01/23/22 13:08 28.4 52 7 17 S - 201
01/23/22 12:08 24.8 60 11 24 SW - 246
01/23/22 11:08 24.6 68 13 25 W - 263
01/23/22 10:08 25.3 76 11 19 W - 254
01/23/22 09:08 25.0 81 8 22 W - 288
01/23/22 08:08 23.8 93 6 16 W - 289
01/23/22 07:08 22.1 95 3 11 NW - 333
01/23/22 06:08 21.7 95 4 14 NW - 317
01/23/22 05:08 20.9 95 4 17 NW - 329
01/23/22 04:08 22.1 95 6 25 NW - 316
01/23/22 03:08 23.2 96 6 27 NW - 310
01/23/22 02:08 21.5 96 3 17 NE - 62
01/23/22 01:08 22.2 96 4 13 N - 338
01/23/22 00:08 22.9 96 3 9 NW - 309
01/22/22 23:08 23.8 97 4 10 NW - 299
01/22/22 22:08 22.8 97 3 7 W - 284
01/22/22 21:08 23.6 97 6 14 N - 338
01/22/22 20:08 21.9 97 3 7 N - 345
01/22/22 19:08 22.5 97 4 7 NW - 334
01/22/22 18:08 19.7 97 2 5 N - 10
01/22/22 17:08 22.0 96 2 6 W - 291
01/22/22 16:08 26.0 96 3 7 NW - 336
01/22/22 15:08 28.8 96 3 7 NW - 300
01/22/22 14:08 30.4 96 2 8 NW - 320
01/22/22 13:08 24.9 96 5 14 N - 354
01/22/22 12:08 22.4 96 7 16 N - 352
01/22/22 11:08 19.2 95 7 15 N - 341
01/22/22 10:08 16.1 95 7 14 N - 354
01/22/22 09:08 18.6 95 4 8 N - 348
01/22/22 08:08 14.1 95 6 10 N - 351
01/22/22 07:08 13.0 95 6 13 N - 347
01/22/22 06:08 11.2 95 6 11 N - 345
01/22/22 05:08 10.4 94 4 12 N - 340